Moss, South Carolina
Current Conditions -  °F | °C
As of 3:35 PM on Monday 24 Nov 2014 (Local Time) from KAIK Reporting Station
Overcast Overcast  
Wind Chill: 70°   Ceiling: 10000
Heat Index: 70°   Visibility: 10mi
Dew Point: 66°   Wind: 12mph
Humidity: 88%   Direction: 190°S
Pressure: 29.87"   Gusts: NA
Location:  33.8233°N, 82.0147°W
Report Text: KAIK 242035Z AUTO 19010KT 10SM BKN100 OVC120 21/19 A2987 RMK AO2 PNO
Loading
Personal Weather Stations






























Interactive Weather Map New forecast layout! Learn more

10-Day Weather Forecast

Advertisements
Track Severe Weather on mobile